Airfield :
LOGIN :

Register | Disclaimer

   EN    FR    IT 

 










Legend :    VFR   Marginal VFR   IFR   Intensive IFR   Very Intensive IFR
Visi :
Ceiling :
>= 8 km
>= 3000ft
5 to 8 km
1000 to 3000 ft
1500m to 5 km
500 to 1000 ft
800 to 1500m
200 to 500 ft
< 800m
< 200 ft
Symbols :   Thunderstorms  Fog  Heavy snow  Heavy precipitations  Wind > 20 kt
SIGMETs :     Misc.  Thunderstorms  Icing  Turbulence  Mountain Waves  Volcanic Ashes







- Airport Elevation : 125 ft
- IATA code : MGL


EDLN - Mönchengladbach

CURRENT METAR :
  • 231420Z 35011KT 320V020 6000 -RA BKN011 11/10 Q1010

EXPIRED METARs :
  • 231350Z 34010KT 310V010 6000 -RA BKN008 11/10 Q1009
  • 231320Z 36009KT 320V050 6000 -RA BKN011 11/10 Q1009
  • 231250Z 35013KT 320V020 4000 -RA BR BKN010 11/11 Q1008
  • 231220Z 34011KT 4000 -RA BR BKN006 11/11 Q1009
  • 231150Z 01009KT 300V050 4000 -RA BR BKN005 12/11 Q1007 RERA

TAF TAF EDLN
Valid from the 23 at 12:00 until the 23 at 21:00 UTC


231100Z 2312/2321 36006KT 4000 RA OVC004
TEMPO 2312/2315 34011KT 2000 +RA OVC008
BECMG 2315/2318 30008KT 8000 NSW SCT008 BKN015
No reported NOTAMs for that airfield.
3 SIGMETs reported for the Langen FIR (EDGG) :
 
Embedded thunderstorms
EDGG SIGMET 3 VALID 231325/231525 EDZF
EDGG LANGEN FIR EMBD TS OBS APRX 50NM WID LINE BTN N4909 E00615 - N4933 E00654 - N5002 E00735 - N5036 E00807 TOP FL350 MOV E INTSF=
Severe turbulence
EDGG SIGMET 2 VALID 231300/231500 EDZF
EDGG LANGEN FIR SEV TURB FCST WI N5051 E00959 - N4905 E00909 - N4900 E00803 - N4907 E00637 - N5006 E00600 - N5032 E00656 - N5045 E00803 - N5051 E00959 SFC/FL060 MOV E INTSF=
Severe turbulence
EDGG SIGMET 1 VALID 231300/231500 EDZF
EDGG LANGEN FIR SEV TURB FCST WI N4905 E00916 - N4748 E00842 - N4728 E00728 - N4805 E00729 - N4835 E00744 - N4850 E00756 - N4858 E00811 - N4905 E00916 SFC/FL100 MOV E INTSF=



MET'MAP, your aeronautical weather chart ! - Copyright ORBIFLY December 2007 - Disclaimer

ORBIFLY MET'MAP TEAM :

Programming & Development : Alexandra Zaïnal
Concept & Development : Baudouin d'Aumeries
Co-Development & Prog : Marc-Olivier Méhu
Technical & hardware support : Manuel Goepfert

Contact : metmap@orbifly.com




SOURCES & CREDITS :

   NOAA